sensor_id;sensor_type;location;lat;lon;timestamp;P1;durP1;ratioP1;P2;durP2;ratioP2
56269;SDS011;42176;43.240;27.880;2023-04-08T00:01:53;9.10;;;6.13;;
56269;SDS011;42176;43.240;27.880;2023-04-08T00:04:18;11.77;;;6.60;;
56269;SDS011;42176;43.240;27.880;2023-04-08T00:06:44;15.68;;;7.95;;
56269;SDS011;42176;43.240;27.880;2023-04-08T00:09:10;11.95;;;7.30;;
56269;SDS011;42176;43.240;27.880;2023-04-08T00:11:35;10.35;;;6.07;;
56269;SDS011;42176;43.240;27.880;2023-04-08T00:14:02;10.77;;;6.53;;
56269;SDS011;42176;43.240;27.880;2023-04-08T00:16:28;11.30;;;5.75;;
56269;SDS011;42176;43.240;27.880;2023-04-08T00:18:53;10.32;;;5.82;;
56269;SDS011;42176;43.240;27.880;2023-04-08T00:21:19;13.25;;;7.85;;
56269;SDS011;42176;43.240;27.880;2023-04-08T00:23:45;13.35;;;5.28;;
56269;SDS011;42176;43.240;27.880;2023-04-08T00:26:11;8.60;;;5.40;;
56269;SDS011;42176;43.240;27.880;2023-04-08T00:28:36;13.50;;;5.82;;
56269;SDS011;42176;43.240;27.880;2023-04-08T00:31:02;5.22;;;4.10;;
56269;SDS011;42176;43.240;27.880;2023-04-08T00:33:28;12.80;;;6.47;;
56269;SDS011;42176;43.240;27.880;2023-04-08T00:35:53;10.60;;;5.50;;
56269;SDS011;42176;43.240;27.880;2023-04-08T00:38:19;10.27;;;5.50;;
56269;SDS011;42176;43.240;27.880;2023-04-08T00:40:45;7.85;;;5.22;;
56269;SDS011;42176;43.240;27.880;2023-04-08T00:43:11;11.30;;;5.90;;
56269;SDS011;42176;43.240;27.880;2023-04-08T00:45:36;15.50;;;6.85;;
56269;SDS011;42176;43.240;27.880;2023-04-08T00:48:02;11.38;;;6.00;;
56269;SDS011;42176;43.240;27.880;2023-04-08T00:50:28;11.10;;;5.60;;
56269;SDS011;42176;43.240;27.880;2023-04-08T00:52:54;7.55;;;4.22;;
56269;SDS011;42176;43.240;27.880;2023-04-08T00:55:19;10.90;;;7.30;;
56269;SDS011;42176;43.240;27.880;2023-04-08T00:57:45;9.07;;;5.75;;
56269;SDS011;42176;43.240;27.880;2023-04-08T01:00:11;13.48;;;6.85;;
56269;SDS011;42176;43.240;27.880;2023-04-08T01:03:04;23.67;;;8.27;;
56269;SDS011;42176;43.240;27.880;2023-04-08T01:07:50;12.75;;;7.80;;
56269;SDS011;42176;43.240;27.880;2023-04-08T01:10:17;12.35;;;7.22;;
56269;SDS011;42176;43.240;27.880;2023-04-08T01:12:54;15.98;;;8.65;;
56269;SDS011;42176;43.240;27.880;2023-04-08T01:15:21;19.10;;;9.65;;
56269;SDS011;42176;43.240;27.880;2023-04-08T01:17:52;15.60;;;9.48;;
56269;SDS011;42176;43.240;27.880;2023-04-08T01:20:19;25.85;;;13.63;;
56269;SDS011;42176;43.240;27.880;2023-04-08T01:25:31;20.65;;;10.00;;
56269;SDS011;42176;43.240;27.880;2023-04-08T01:27:59;17.65;;;9.38;;
56269;SDS011;42176;43.240;27.880;2023-04-08T01:30:27;21.42;;;12.95;;
56269;SDS011;42176;43.240;27.880;2023-04-08T01:32:54;18.15;;;10.13;;
56269;SDS011;42176;43.240;27.880;2023-04-08T01:35:22;19.17;;;9.73;;
56269;SDS011;42176;43.240;27.880;2023-04-08T01:37:48;21.35;;;11.07;;
56269;SDS011;42176;43.240;27.880;2023-04-08T01:40:15;24.70;;;13.52;;
56269;SDS011;42176;43.240;27.880;2023-04-08T01:42:42;12.50;;;7.63;;
56269;SDS011;42176;43.240;27.880;2023-04-08T01:45:10;26.30;;;11.50;;
56269;SDS011;42176;43.240;27.880;2023-04-08T01:47:36;21.42;;;11.65;;
56269;SDS011;42176;43.240;27.880;2023-04-08T01:50:03;27.77;;;17.35;;
56269;SDS011;42176;43.240;27.880;2023-04-08T01:52:30;20.27;;;11.32;;
56269;SDS011;42176;43.240;27.880;2023-04-08T01:54:58;18.38;;;9.55;;
56269;SDS011;42176;43.240;27.880;2023-04-08T01:57:26;23.17;;;12.95;;
56269;SDS011;42176;43.240;27.880;2023-04-08T01:59:55;24.13;;;14.25;;
56269;SDS011;42176;43.240;27.880;2023-04-08T02:02:25;22.25;;;11.38;;
56269;SDS011;42176;43.240;27.880;2023-04-08T02:04:52;22.17;;;12.20;;
56269;SDS011;42176;43.240;27.880;2023-04-08T02:07:18;42.75;;;14.73;;
56269;SDS011;42176;43.240;27.880;2023-04-08T02:09:44;33.55;;;18.17;;
56269;SDS011;42176;43.240;27.880;2023-04-08T02:12:10;23.83;;;11.43;;
56269;SDS011;42176;43.240;27.880;2023-04-08T02:14:36;20.83;;;11.18;;
56269;SDS011;42176;43.240;27.880;2023-04-08T02:17:08;22.77;;;12.30;;
56269;SDS011;42176;43.240;27.880;2023-04-08T02:19:40;20.98;;;11.85;;
56269;SDS011;42176;43.240;27.880;2023-04-08T02:22:16;23.30;;;12.73;;
56269;SDS011;42176;43.240;27.880;2023-04-08T02:24:53;20.05;;;11.68;;
56269;SDS011;42176;43.240;27.880;2023-04-08T02:30:05;23.30;;;11.88;;
56269;SDS011;42176;43.240;27.880;2023-04-08T02:32:31;19.17;;;11.73;;
56269;SDS011;42176;43.240;27.880;2023-04-08T02:34:59;21.77;;;10.82;;
56269;SDS011;42176;43.240;27.880;2023-04-08T02:37:27;17.58;;;9.82;;
56269;SDS011;42176;43.240;27.880;2023-04-08T02:39:53;26.13;;;14.57;;
56269;SDS011;42176;43.240;27.880;2023-04-08T02:42:19;24.98;;;12.68;;
56269;SDS011;42176;43.240;27.880;2023-04-08T02:44:44;22.00;;;11.32;;
56269;SDS011;42176;43.240;27.880;2023-04-08T02:47:10;22.30;;;11.85;;
56269;SDS011;42176;43.240;27.880;2023-04-08T02:49:35;23.23;;;11.90;;
56269;SDS011;42176;43.240;27.880;2023-04-08T02:52:01;24.73;;;12.55;;
56269;SDS011;42176;43.240;27.880;2023-04-08T02:54:26;21.15;;;11.30;;
56269;SDS011;42176;43.240;27.880;2023-04-08T02:56:51;26.00;;;10.57;;
56269;SDS011;42176;43.240;27.880;2023-04-08T02:59:17;23.60;;;10.77;;
56269;SDS011;42176;43.240;27.880;2023-04-08T03:01:42;19.13;;;10.52;;
56269;SDS011;42176;43.240;27.880;2023-04-08T03:04:08;29.25;;;16.10;;
56269;SDS011;42176;43.240;27.880;2023-04-08T03:06:34;18.15;;;9.95;;
56269;SDS011;42176;43.240;27.880;2023-04-08T03:08:59;23.13;;;10.25;;
56269;SDS011;42176;43.240;27.880;2023-04-08T03:11:25;22.55;;;11.00;;
56269;SDS011;42176;43.240;27.880;2023-04-08T03:13:50;21.67;;;12.20;;
56269;SDS011;42176;43.240;27.880;2023-04-08T03:16:16;7.00;;;4.57;;
56269;SDS011;42176;43.240;27.880;2023-04-08T03:18:41;17.45;;;9.85;;
56269;SDS011;42176;43.240;27.880;2023-04-08T03:21:06;23.02;;;11.50;;
56269;SDS011;42176;43.240;27.880;2023-04-08T03:23:32;25.17;;;12.73;;
56269;SDS011;42176;43.240;27.880;2023-04-08T03:25:57;31.52;;;15.88;;
56269;SDS011;42176;43.240;27.880;2023-04-08T03:28:23;26.35;;;11.60;;
56269;SDS011;42176;43.240;27.880;2023-04-08T03:30:48;24.17;;;10.75;;
56269;SDS011;42176;43.240;27.880;2023-04-08T03:33:14;21.35;;;10.73;;
56269;SDS011;42176;43.240;27.880;2023-04-08T03:35:39;28.33;;;16.75;;
56269;SDS011;42176;43.240;27.880;2023-04-08T03:38:05;14.93;;;8.45;;
56269;SDS011;42176;43.240;27.880;2023-04-08T03:40:30;18.02;;;10.20;;
56269;SDS011;42176;43.240;27.880;2023-04-08T03:42:56;12.93;;;8.55;;
56269;SDS011;42176;43.240;27.880;2023-04-08T03:45:21;21.15;;;11.85;;
56269;SDS011;42176;43.240;27.880;2023-04-08T03:47:47;19.17;;;9.57;;
56269;SDS011;42176;43.240;27.880;2023-04-08T03:50:12;22.73;;;11.30;;
56269;SDS011;42176;43.240;27.880;2023-04-08T03:52:37;21.55;;;10.13;;
56269;SDS011;42176;43.240;27.880;2023-04-08T03:55:03;28.75;;;15.80;;
56269;SDS011;42176;43.240;27.880;2023-04-08T03:57:29;23.77;;;13.30;;
56269;SDS011;42176;43.240;27.880;2023-04-08T03:59:54;25.08;;;12.55;;
56269;SDS011;42176;43.240;27.880;2023-04-08T04:02:20;28.88;;;11.60;;
56269;SDS011;42176;43.240;27.880;2023-04-08T04:04:45;18.25;;;9.82;;
56269;SDS011;42176;43.240;27.880;2023-04-08T04:07:11;30.70;;;15.85;;
56269;SDS011;42176;43.240;27.880;2023-04-08T04:09:36;28.75;;;11.13;;
56269;SDS011;42176;43.240;27.880;2023-04-08T04:12:01;18.45;;;9.32;;
56269;SDS011;42176;43.240;27.880;2023-04-08T04:14:27;23.08;;;10.65;;
56269;SDS011;42176;43.240;27.880;2023-04-08T04:16:52;20.33;;;9.75;;
56269;SDS011;42176;43.240;27.880;2023-04-08T04:19:18;23.65;;;11.93;;
56269;SDS011;42176;43.240;27.880;2023-04-08T04:21:43;18.27;;;10.13;;
56269;SDS011;42176;43.240;27.880;2023-04-08T04:24:09;25.33;;;12.73;;
56269;SDS011;42176;43.240;27.880;2023-04-08T04:26:34;21.05;;;10.15;;
56269;SDS011;42176;43.240;27.880;2023-04-08T04:29:00;21.95;;;10.70;;
56269;SDS011;42176;43.240;27.880;2023-04-08T04:31:25;20.35;;;9.85;;
56269;SDS011;42176;43.240;27.880;2023-04-08T04:33:51;21.23;;;10.65;;
56269;SDS011;42176;43.240;27.880;2023-04-08T04:36:16;18.02;;;9.25;;
56269;SDS011;42176;43.240;27.880;2023-04-08T04:38:42;18.33;;;9.73;;
56269;SDS011;42176;43.240;27.880;2023-04-08T04:41:08;17.88;;;9.30;;
56269;SDS011;42176;43.240;27.880;2023-04-08T04:43:34;15.88;;;9.25;;
56269;SDS011;42176;43.240;27.880;2023-04-08T04:45:59;18.58;;;11.02;;
56269;SDS011;42176;43.240;27.880;2023-04-08T04:48:26;26.35;;;10.20;;
56269;SDS011;42176;43.240;27.880;2023-04-08T04:50:55;21.35;;;11.40;;
56269;SDS011;42176;43.240;27.880;2023-04-08T04:53:22;13.60;;;8.85;;
56269;SDS011;42176;43.240;27.880;2023-04-08T04:55:48;17.90;;;9.98;;
56269;SDS011;42176;43.240;27.880;2023-04-08T04:58:14;16.60;;;9.25;;
56269;SDS011;42176;43.240;27.880;2023-04-08T05:00:40;17.05;;;9.20;;
56269;SDS011;42176;43.240;27.880;2023-04-08T05:03:05;19.33;;;10.48;;
56269;SDS011;42176;43.240;27.880;2023-04-08T05:05:31;15.57;;;9.80;;
56269;SDS011;42176;43.240;27.880;2023-04-08T05:07:56;20.67;;;10.13;;
56269;SDS011;42176;43.240;27.880;2023-04-08T05:10:22;18.15;;;9.80;;
56269;SDS011;42176;43.240;27.880;2023-04-08T05:12:47;17.48;;;8.93;;
56269;SDS011;42176;43.240;27.880;2023-04-08T05:15:12;11.73;;;7.32;;
56269;SDS011;42176;43.240;27.880;2023-04-08T05:17:38;20.90;;;9.85;;
56269;SDS011;42176;43.240;27.880;2023-04-08T05:20:04;12.93;;;7.70;;
56269;SDS011;42176;43.240;27.880;2023-04-08T05:22:30;13.80;;;8.77;;
56269;SDS011;42176;43.240;27.880;2023-04-08T05:24:56;13.85;;;8.00;;
56269;SDS011;42176;43.240;27.880;2023-04-08T05:27:21;16.60;;;7.75;;
56269;SDS011;42176;43.240;27.880;2023-04-08T05:29:47;28.85;;;15.98;;
56269;SDS011;42176;43.240;27.880;2023-04-08T05:32:12;29.63;;;15.73;;
56269;SDS011;42176;43.240;27.880;2023-04-08T05:34:38;31.58;;;14.63;;
56269;SDS011;42176;43.240;27.880;2023-04-08T05:37:03;25.63;;;14.00;;
56269;SDS011;42176;43.240;27.880;2023-04-08T05:39:29;33.85;;;16.80;;
56269;SDS011;42176;43.240;27.880;2023-04-08T05:41:54;29.02;;;14.40;;
56269;SDS011;42176;43.240;27.880;2023-04-08T05:44:20;29.75;;;14.95;;
56269;SDS011;42176;43.240;27.880;2023-04-08T05:46:45;33.22;;;14.30;;
56269;SDS011;42176;43.240;27.880;2023-04-08T05:49:11;20.98;;;12.00;;
56269;SDS011;42176;43.240;27.880;2023-04-08T05:51:37;24.25;;;13.70;;
56269;SDS011;42176;43.240;27.880;2023-04-08T05:54:03;23.60;;;12.52;;
56269;SDS011;42176;43.240;27.880;2023-04-08T05:56:29;19.02;;;12.23;;
56269;SDS011;42176;43.240;27.880;2023-04-08T05:58:56;18.13;;;10.27;;
56269;SDS011;42176;43.240;27.880;2023-04-08T06:01:22;20.10;;;10.75;;
56269;SDS011;42176;43.240;27.880;2023-04-08T06:03:47;19.27;;;8.35;;
56269;SDS011;42176;43.240;27.880;2023-04-08T06:06:13;15.70;;;8.88;;
56269;SDS011;42176;43.240;27.880;2023-04-08T06:08:38;13.95;;;8.23;;
56269;SDS011;42176;43.240;27.880;2023-04-08T06:11:04;18.40;;;8.13;;
56269;SDS011;42176;43.240;27.880;2023-04-08T06:13:30;13.05;;;6.72;;
56269;SDS011;42176;43.240;27.880;2023-04-08T06:15:56;9.27;;;5.85;;
56269;SDS011;42176;43.240;27.880;2023-04-08T06:18:21;14.75;;;6.88;;
56269;SDS011;42176;43.240;27.880;2023-04-08T06:20:47;10.05;;;6.95;;
56269;SDS011;42176;43.240;27.880;2023-04-08T06:23:12;13.68;;;6.68;;
56269;SDS011;42176;43.240;27.880;2023-04-08T06:25:38;11.10;;;6.78;;
56269;SDS011;42176;43.240;27.880;2023-04-08T06:28:03;11.18;;;6.22;;
56269;SDS011;42176;43.240;27.880;2023-04-08T06:30:29;10.15;;;6.72;;
56269;SDS011;42176;43.240;27.880;2023-04-08T06:32:55;10.50;;;6.43;;
56269;SDS011;42176;43.240;27.880;2023-04-08T06:35:20;9.10;;;5.88;;
56269;SDS011;42176;43.240;27.880;2023-04-08T06:37:46;20.92;;;7.65;;
56269;SDS011;42176;43.240;27.880;2023-04-08T06:40:11;11.88;;;7.20;;
56269;SDS011;42176;43.240;27.880;2023-04-08T06:42:37;15.52;;;6.70;;
56269;SDS011;42176;43.240;27.880;2023-04-08T06:45:04;10.48;;;6.15;;
56269;SDS011;42176;43.240;27.880;2023-04-08T06:47:30;11.38;;;6.32;;
56269;SDS011;42176;43.240;27.880;2023-04-08T06:49:56;8.90;;;6.78;;
56269;SDS011;42176;43.240;27.880;2023-04-08T06:52:21;7.25;;;5.45;;
56269;SDS011;42176;43.240;27.880;2023-04-08T06:54:46;10.90;;;6.82;;
56269;SDS011;42176;43.240;27.880;2023-04-08T06:57:12;13.43;;;6.03;;
56269;SDS011;42176;43.240;27.880;2023-04-08T06:59:37;11.85;;;6.70;;
56269;SDS011;42176;43.240;27.880;2023-04-08T07:02:03;7.80;;;6.28;;
56269;SDS011;42176;43.240;27.880;2023-04-08T07:04:28;12.45;;;6.65;;
56269;SDS011;42176;43.240;27.880;2023-04-08T07:06:53;9.35;;;6.63;;
56269;SDS011;42176;43.240;27.880;2023-04-08T07:09:19;7.07;;;5.68;;
56269;SDS011;42176;43.240;27.880;2023-04-08T07:11:44;10.45;;;6.97;;
56269;SDS011;42176;43.240;27.880;2023-04-08T07:14:11;9.75;;;6.45;;
56269;SDS011;42176;43.240;27.880;2023-04-08T07:16:36;12.80;;;7.13;;
56269;SDS011;42176;43.240;27.880;2023-04-08T07:19:01;11.35;;;6.43;;
56269;SDS011;42176;43.240;27.880;2023-04-08T07:21:27;10.20;;;7.13;;
56269;SDS011;42176;43.240;27.880;2023-04-08T07:23:52;16.00;;;7.05;;
56269;SDS011;42176;43.240;27.880;2023-04-08T07:26:18;8.65;;;6.07;;
56269;SDS011;42176;43.240;27.880;2023-04-08T07:28:43;12.38;;;6.32;;
56269;SDS011;42176;43.240;27.880;2023-04-08T07:31:13;9.32;;;6.72;;
56269;SDS011;42176;43.240;27.880;2023-04-08T07:33:40;8.60;;;6.07;;
56269;SDS011;42176;43.240;27.880;2023-04-08T07:36:07;8.00;;;5.60;;
56269;SDS011;42176;43.240;27.880;2023-04-08T07:38:34;9.50;;;6.68;;
56269;SDS011;42176;43.240;27.880;2023-04-08T07:41:00;6.50;;;5.82;;
56269;SDS011;42176;43.240;27.880;2023-04-08T07:43:26;9.43;;;7.00;;
56269;SDS011;42176;43.240;27.880;2023-04-08T07:45:51;15.77;;;6.25;;
56269;SDS011;42176;43.240;27.880;2023-04-08T07:48:17;15.00;;;6.72;;
56269;SDS011;42176;43.240;27.880;2023-04-08T07:50:42;9.38;;;6.35;;
56269;SDS011;42176;43.240;27.880;2023-04-08T07:53:09;8.55;;;4.88;;
56269;SDS011;42176;43.240;27.880;2023-04-08T07:55:35;16.67;;;6.47;;
56269;SDS011;42176;43.240;27.880;2023-04-08T07:58:00;10.80;;;5.13;;
56269;SDS011;42176;43.240;27.880;2023-04-08T08:00:26;11.70;;;5.85;;
56269;SDS011;42176;43.240;27.880;2023-04-08T08:02:51;8.88;;;5.90;;
56269;SDS011;42176;43.240;27.880;2023-04-08T08:05:17;8.20;;;5.63;;
56269;SDS011;42176;43.240;27.880;2023-04-08T08:07:42;7.68;;;5.63;;
56269;SDS011;42176;43.240;27.880;2023-04-08T08:10:08;10.50;;;5.55;;
56269;SDS011;42176;43.240;27.880;2023-04-08T08:12:34;9.13;;;5.82;;
56269;SDS011;42176;43.240;27.880;2023-04-08T08:15:00;10.90;;;5.93;;
56269;SDS011;42176;43.240;27.880;2023-04-08T08:17:26;5.60;;;4.05;;
56269;SDS011;42176;43.240;27.880;2023-04-08T08:19:54;9.98;;;5.72;;
56269;SDS011;42176;43.240;27.880;2023-04-08T08:22:19;12.05;;;6.32;;
56269;SDS011;42176;43.240;27.880;2023-04-08T08:24:45;12.95;;;6.00;;
56269;SDS011;42176;43.240;27.880;2023-04-08T08:27:11;7.80;;;4.78;;
56269;SDS011;42176;43.240;27.880;2023-04-08T08:29:37;11.38;;;5.90;;
56269;SDS011;42176;43.240;27.880;2023-04-08T08:32:03;7.50;;;5.40;;
56269;SDS011;42176;43.240;27.880;2023-04-08T08:34:28;8.98;;;5.70;;
56269;SDS011;42176;43.240;27.880;2023-04-08T08:36:54;8.48;;;4.93;;
56269;SDS011;42176;43.240;27.880;2023-04-08T08:39:20;12.20;;;5.78;;
56269;SDS011;42176;43.240;27.880;2023-04-08T08:41:45;9.88;;;5.18;;
56269;SDS011;42176;43.240;27.880;2023-04-08T08:44:11;9.52;;;5.55;;
56269;SDS011;42176;43.240;27.880;2023-04-08T08:46:41;8.70;;;5.13;;
56269;SDS011;42176;43.240;27.880;2023-04-08T08:49:08;6.43;;;3.92;;
56269;SDS011;42176;43.240;27.880;2023-04-08T08:51:34;9.45;;;5.30;;
56269;SDS011;42176;43.240;27.880;2023-04-08T08:54:03;9.13;;;5.45;;
56269;SDS011;42176;43.240;27.880;2023-04-08T08:56:29;13.73;;;6.13;;
56269;SDS011;42176;43.240;27.880;2023-04-08T08:58:54;9.95;;;5.85;;
56269;SDS011;42176;43.240;27.880;2023-04-08T09:01:29;12.02;;;7.43;;
56269;SDS011;42176;43.240;27.880;2023-04-08T09:04:15;9.82;;;6.75;;
56269;SDS011;42176;43.240;27.880;2023-04-08T09:06:44;10.82;;;6.35;;
56269;SDS011;42176;43.240;27.880;2023-04-08T09:09:11;10.27;;;6.88;;
56269;SDS011;42176;43.240;27.880;2023-04-08T09:11:37;13.20;;;6.57;;
56269;SDS011;42176;43.240;27.880;2023-04-08T09:14:04;10.70;;;6.93;;
56269;SDS011;42176;43.240;27.880;2023-04-08T09:16:31;11.35;;;6.85;;
56269;SDS011;42176;43.240;27.880;2023-04-08T09:19:06;10.13;;;5.85;;
56269;SDS011;42176;43.240;27.880;2023-04-08T09:21:34;10.32;;;6.60;;
56269;SDS011;42176;43.240;27.880;2023-04-08T09:24:00;8.93;;;6.32;;
56269;SDS011;42176;43.240;27.880;2023-04-08T09:26:26;11.18;;;7.20;;
56269;SDS011;42176;43.240;27.880;2023-04-08T09:31:28;8.88;;;6.00;;
56269;SDS011;42176;43.240;27.880;2023-04-08T09:33:58;12.52;;;6.93;;
56269;SDS011;42176;43.240;27.880;2023-04-08T09:36:26;9.67;;;5.83;;
56269;SDS011;42176;43.240;27.880;2023-04-08T09:38:52;9.20;;;5.97;;
56269;SDS011;42176;43.240;27.880;2023-04-08T09:41:19;7.78;;;4.28;;
56269;SDS011;42176;43.240;27.880;2023-04-08T09:43:48;9.70;;;5.15;;
56269;SDS011;42176;43.240;27.880;2023-04-08T09:46:25;6.15;;;5.20;;
56269;SDS011;42176;43.240;27.880;2023-04-08T09:49:12;16.13;;;6.55;;
56269;SDS011;42176;43.240;27.880;2023-04-08T09:52:06;8.20;;;4.63;;
56269;SDS011;42176;43.240;27.880;2023-04-08T09:54:46;8.10;;;4.55;;
56269;SDS011;42176;43.240;27.880;2023-04-08T09:57:14;12.55;;;4.90;;
56269;SDS011;42176;43.240;27.880;2023-04-08T09:59:48;9.23;;;5.47;;
56269;SDS011;42176;43.240;27.880;2023-04-08T10:02:24;17.63;;;5.57;;
56269;SDS011;42176;43.240;27.880;2023-04-08T10:04:57;7.00;;;4.50;;
56269;SDS011;42176;43.240;27.880;2023-04-08T10:07:27;11.13;;;5.72;;
56269;SDS011;42176;43.240;27.880;2023-04-08T10:09:53;6.55;;;5.55;;
56269;SDS011;42176;43.240;27.880;2023-04-08T10:12:19;7.95;;;5.50;;
56269;SDS011;42176;43.240;27.880;2023-04-08T10:17:51;13.68;;;5.38;;
56269;SDS011;42176;43.240;27.880;2023-04-08T10:20:53;8.27;;;4.07;;
56269;SDS011;42176;43.240;27.880;2023-04-08T10:23:16;9.43;;;6.25;;
56269;SDS011;42176;43.240;27.880;2023-04-08T10:25:43;10.05;;;5.13;;
56269;SDS011;42176;43.240;27.880;2023-04-08T10:33:11;10.88;;;5.28;;
56269;SDS011;42176;43.240;27.880;2023-04-08T10:36:26;7.25;;;4.18;;
56269;SDS011;42176;43.240;27.880;2023-04-08T10:38:34;6.88;;;4.50;;
56269;SDS011;42176;43.240;27.880;2023-04-08T10:40:59;9.30;;;6.05;;
56269;SDS011;42176;43.240;27.880;2023-04-08T10:43:30;7.28;;;5.57;;
56269;SDS011;42176;43.240;27.880;2023-04-08T10:45:57;6.05;;;3.88;;
56269;SDS011;42176;43.240;27.880;2023-04-08T10:48:23;11.45;;;5.95;;
56269;SDS011;42176;43.240;27.880;2023-04-08T10:56:07;5.53;;;3.95;;
56269;SDS011;42176;43.240;27.880;2023-04-08T10:58:46;8.50;;;5.13;;
56269;SDS011;42176;43.240;27.880;2023-04-08T11:01:12;12.80;;;6.38;;
56269;SDS011;42176;43.240;27.880;2023-04-08T11:03:38;4.93;;;4.28;;
56269;SDS011;42176;43.240;27.880;2023-04-08T11:06:03;8.40;;;5.15;;
56269;SDS011;42176;43.240;27.880;2023-04-08T11:08:30;6.90;;;4.75;;
56269;SDS011;42176;43.240;27.880;2023-04-08T11:10:57;6.40;;;4.93;;
56269;SDS011;42176;43.240;27.880;2023-04-08T11:13:23;6.13;;;4.00;;
56269;SDS011;42176;43.240;27.880;2023-04-08T11:15:48;7.47;;;4.30;;
56269;SDS011;42176;43.240;27.880;2023-04-08T11:18:14;6.93;;;5.03;;
56269;SDS011;42176;43.240;27.880;2023-04-08T11:20:42;12.05;;;5.07;;
56269;SDS011;42176;43.240;27.880;2023-04-08T11:23:14;6.95;;;4.32;;
56269;SDS011;42176;43.240;27.880;2023-04-08T11:25:41;9.10;;;5.47;;
56269;SDS011;42176;43.240;27.880;2023-04-08T11:28:07;7.05;;;4.35;;
56269;SDS011;42176;43.240;27.880;2023-04-08T11:30:33;6.03;;;4.05;;
56269;SDS011;42176;43.240;27.880;2023-04-08T11:32:59;6.20;;;4.45;;
56269;SDS011;42176;43.240;27.880;2023-04-08T11:35:28;7.32;;;4.40;;
56269;SDS011;42176;43.240;27.880;2023-04-08T11:37:55;11.55;;;5.00;;
56269;SDS011;42176;43.240;27.880;2023-04-08T11:40:21;5.95;;;3.75;;
56269;SDS011;42176;43.240;27.880;2023-04-08T11:42:48;8.43;;;5.38;;
56269;SDS011;42176;43.240;27.880;2023-04-08T11:45:15;4.03;;;3.50;;
56269;SDS011;42176;43.240;27.880;2023-04-08T11:47:42;8.68;;;5.22;;
56269;SDS011;42176;43.240;27.880;2023-04-08T11:50:08;7.72;;;4.85;;
56269;SDS011;42176;43.240;27.880;2023-04-08T11:52:44;5.53;;;3.47;;
56269;SDS011;42176;43.240;27.880;2023-04-08T11:55:12;6.32;;;4.72;;
56269;SDS011;42176;43.240;27.880;2023-04-08T11:57:48;8.07;;;4.50;;
56269;SDS011;42176;43.240;27.880;2023-04-08T12:00:14;9.63;;;5.30;;
56269;SDS011;42176;43.240;27.880;2023-04-08T12:02:39;5.35;;;3.83;;
56269;SDS011;42176;43.240;27.880;2023-04-08T12:05:05;8.70;;;4.40;;
56269;SDS011;42176;43.240;27.880;2023-04-08T12:07:30;6.43;;;4.25;;
56269;SDS011;42176;43.240;27.880;2023-04-08T12:09:56;6.63;;;4.88;;
56269;SDS011;42176;43.240;27.880;2023-04-08T12:12:22;7.30;;;5.00;;
56269;SDS011;42176;43.240;27.880;2023-04-08T12:14:48;8.82;;;4.90;;
56269;SDS011;42176;43.240;27.880;2023-04-08T12:17:13;5.60;;;3.75;;
56269;SDS011;42176;43.240;27.880;2023-04-08T12:19:39;6.95;;;3.80;;
56269;SDS011;42176;43.240;27.880;2023-04-08T12:22:05;6.68;;;4.72;;
56269;SDS011;42176;43.240;27.880;2023-04-08T12:24:30;4.07;;;3.28;;
56269;SDS011;42176;43.240;27.880;2023-04-08T12:26:56;6.18;;;3.75;;
56269;SDS011;42176;43.240;27.880;2023-04-08T12:29:21;7.05;;;5.03;;
56269;SDS011;42176;43.240;27.880;2023-04-08T12:31:47;7.03;;;4.80;;
56269;SDS011;42176;43.240;27.880;2023-04-08T12:34:12;4.93;;;3.80;;
56269;SDS011;42176;43.240;27.880;2023-04-08T12:36:38;11.93;;;5.43;;
56269;SDS011;42176;43.240;27.880;2023-04-08T12:39:03;6.70;;;4.10;;
56269;SDS011;42176;43.240;27.880;2023-04-08T12:41:29;10.13;;;5.00;;
56269;SDS011;42176;43.240;27.880;2023-04-08T12:43:54;16.45;;;4.55;;
56269;SDS011;42176;43.240;27.880;2023-04-08T12:46:20;8.38;;;4.20;;
56269;SDS011;42176;43.240;27.880;2023-04-08T12:48:45;10.10;;;4.80;;
56269;SDS011;42176;43.240;27.880;2023-04-08T12:51:13;7.20;;;3.85;;
56269;SDS011;42176;43.240;27.880;2023-04-08T12:53:38;4.57;;;3.35;;
56269;SDS011;42176;43.240;27.880;2023-04-08T12:56:04;5.20;;;3.60;;
56269;SDS011;42176;43.240;27.880;2023-04-08T12:58:30;6.15;;;3.83;;
56269;SDS011;42176;43.240;27.880;2023-04-08T13:00:55;5.60;;;3.72;;
56269;SDS011;42176;43.240;27.880;2023-04-08T13:03:20;5.47;;;4.00;;
56269;SDS011;42176;43.240;27.880;2023-04-08T13:05:46;5.15;;;3.90;;
56269;SDS011;42176;43.240;27.880;2023-04-08T13:08:12;6.85;;;4.25;;
56269;SDS011;42176;43.240;27.880;2023-04-08T13:10:38;6.22;;;3.95;;
56269;SDS011;42176;43.240;27.880;2023-04-08T13:13:03;7.25;;;3.38;;
56269;SDS011;42176;43.240;27.880;2023-04-08T13:15:29;4.35;;;3.08;;
56269;SDS011;42176;43.240;27.880;2023-04-08T13:17:54;7.53;;;4.13;;
56269;SDS011;42176;43.240;27.880;2023-04-08T13:20:20;7.35;;;4.60;;
56269;SDS011;42176;43.240;27.880;2023-04-08T13:22:49;5.70;;;3.85;;
56269;SDS011;42176;43.240;27.880;2023-04-08T13:25:15;6.05;;;3.65;;
56269;SDS011;42176;43.240;27.880;2023-04-08T13:27:41;10.27;;;4.55;;
56269;SDS011;42176;43.240;27.880;2023-04-08T13:30:06;6.00;;;3.65;;
56269;SDS011;42176;43.240;27.880;2023-04-08T13:32:32;5.15;;;3.60;;
56269;SDS011;42176;43.240;27.880;2023-04-08T13:34:58;6.13;;;3.67;;
56269;SDS011;42176;43.240;27.880;2023-04-08T13:37:23;9.73;;;5.35;;
56269;SDS011;42176;43.240;27.880;2023-04-08T13:39:49;5.55;;;3.55;;
56269;SDS011;42176;43.240;27.880;2023-04-08T13:42:14;7.75;;;3.60;;
56269;SDS011;42176;43.240;27.880;2023-04-08T13:44:39;5.78;;;3.30;;
56269;SDS011;42176;43.240;27.880;2023-04-08T13:47:05;5.60;;;3.30;;
56269;SDS011;42176;43.240;27.880;2023-04-08T13:49:31;6.97;;;3.53;;
56269;SDS011;42176;43.240;27.880;2023-04-08T13:51:57;6.80;;;3.70;;
56269;SDS011;42176;43.240;27.880;2023-04-08T13:54:22;9.07;;;4.38;;
56269;SDS011;42176;43.240;27.880;2023-04-08T13:56:47;7.07;;;4.15;;
56269;SDS011;42176;43.240;27.880;2023-04-08T13:59:13;5.95;;;3.30;;
56269;SDS011;42176;43.240;27.880;2023-04-08T14:01:38;7.50;;;3.70;;
56269;SDS011;42176;43.240;27.880;2023-04-08T14:04:05;5.30;;;3.60;;
56269;SDS011;42176;43.240;27.880;2023-04-08T14:06:30;4.35;;;3.40;;
56269;SDS011;42176;43.240;27.880;2023-04-08T14:08:56;5.47;;;3.47;;
56269;SDS011;42176;43.240;27.880;2023-04-08T14:11:22;6.38;;;3.67;;
56269;SDS011;42176;43.240;27.880;2023-04-08T14:13:47;5.60;;;3.40;;
56269;SDS011;42176;43.240;27.880;2023-04-08T14:16:13;5.30;;;3.63;;
56269;SDS011;42176;43.240;27.880;2023-04-08T14:18:39;4.13;;;2.45;;
56269;SDS011;42176;43.240;27.880;2023-04-08T14:21:04;13.73;;;4.00;;
56269;SDS011;42176;43.240;27.880;2023-04-08T14:23:31;6.18;;;3.58;;
56269;SDS011;42176;43.240;27.880;2023-04-08T14:25:56;2.20;;;1.77;;
56269;SDS011;42176;43.240;27.880;2023-04-08T14:28:22;4.18;;;3.13;;
56269;SDS011;42176;43.240;27.880;2023-04-08T14:30:47;3.60;;;2.30;;
56269;SDS011;42176;43.240;27.880;2023-04-08T14:33:13;5.78;;;3.70;;
56269;SDS011;42176;43.240;27.880;2023-04-08T14:35:38;6.95;;;3.00;;
56269;SDS011;42176;43.240;27.880;2023-04-08T14:38:04;5.75;;;3.28;;
56269;SDS011;42176;43.240;27.880;2023-04-08T14:40:29;7.15;;;3.53;;
56269;SDS011;42176;43.240;27.880;2023-04-08T14:42:55;5.10;;;3.13;;
56269;SDS011;42176;43.240;27.880;2023-04-08T14:45:20;4.10;;;2.80;;